Sirjan, Iran

5:16 PM IRDT on September 01, 2014 (GMT +0430)
Rafsanjan | Change Station
CLOSE
Current Station
Airport
Location: RAFSANJAN,
Elevation: 5299 ft
Nearby Weather Stations

Elev 5299 ft 30.30 °N, 56.05 °E | Updated 2 hours ago

Clear
Clear
86 °F
Feels Like 86 °F
N
9
Wind Variable Wind from NW

Today
High -- | Low -- °F
--% Chance of Precip.
Yesterday
High -- | Low -- °F
Precip. -- in
6:24 AM 7:09 PM
Waxing Crescent, 40% visible
Pressure 29.98 in
Visibility -9999.0 miles
Clouds
Dew Point 19 °F
Humidity 9%
Rainfall 0.00 in
Snow Depth Not available.
UV Not available.
Pollen Not available.
Air Quality Not available.
Flu Activity Not available.
METAR OIKR 011000Z 31008KT CAVOK 30/M07 Q1015 A2998

More Conditions Fewer Conditions

Pressure 29.98 in
Visibility -9999.0 miles
Clouds
Dew Point 19 °F
Humidity 9%
Rainfall 0.00 in
Snow Depth Not available.
UV Not available.
Pollen Not available.
Air Quality Not available.
Flu Activity Not available.
METAR OIKR 011000Z 31008KT CAVOK 30/M07 Q1015 A2998

More Conditions Fewer Conditions

10-Day Weather Forecast

Almanac

Astronomy

Sep. 01, 2014 Rise Set
Actual Time 6:24 AM IRDT 7:09 PM IRDT
Civil Twilight 6:00 AM IRDT 7:33 PM IRDT
Nautical Twilight 5:31 AM IRDT 8:02 PM IRDT
Astronomical Twilight 5:02 AM IRDT 8:31 PM IRDT
Moon 12:16 PM IRDT 11:21 PM IRDT
Length of Visible Light 13h 33m
Length of Day
12h 45m
Tomorrow will be 1m 42s shorter.
Waxing Crescent, 40% of the Moon is Illuminated
Today
Waxing Crescent
Sep 2
First Quarter
Sep 8
Full
Sep 15
Last Quarter
Sep 24
New

Yesterday's Extremes

Country Highs Country Lows

Community

WunderPhotos

Upload Photos

1,749,199 photos uploaded!

Nearby

Snow Depth

Not available.

Earthquake Activity

City Distance Mag. Time & Date
No recent earthquake activity has been reported nearby.
Minimum magnitude displayed is 2.5.

Coastal Water Temperatures

Place Temperature
No Stations Reporting

Nearby Weather Stations